Time;durP1;ratioP1;P1;durP2;ratioP2;P2;SDS_P1;SDS_P2;PMS_P1;PMS_P2;Temp;Humidity;BMP_temperature;BMP_pressure;BME280_temperature;BME280_humidity;BME280_pressure;Samples;Min_cycle;Max_cycle;Signal;HPM_P1;HPM_P2
2023/11/29 00:00:29;;;;;;;15.82;9.10;;;-0.50;99.90;;;;;;4981705;28;20038;-76
2023/11/29 00:03:15;;;;;;;15.30;8.38;;;-0.50;99.90;;;;;;4995339;28;20502;-76
2023/11/29 00:06:03;;;;;;;17.00;9.70;;;-0.50;99.90;;;;;;4990632;28;20038;-76
2023/11/29 00:08:49;;;;;;;;;;;-0.60;99.90;;;;;;4987481;28;20336;-77
2023/11/29 00:11:35;;;;;;;14.90;8.15;;;-0.60;99.90;;;;;;4976143;28;19914;-76
2023/11/29 00:14:21;;;;;;;18.88;9.60;;;-0.50;99.90;;;;;;4974882;28;20375;-76
2023/11/29 00:17:07;;;;;;;15.80;8.30;;;-0.50;99.90;;;;;;4982307;28;20042;-76
2023/11/29 00:19:54;;;;;;;15.45;9.35;;;-0.50;99.90;;;;;;4975569;28;20052;-77
2023/11/29 00:22:40;;;;;;;17.35;9.23;;;-0.50;99.90;;;;;;4980637;28;20343;-76
2023/11/29 00:25:26;;;;;;;15.60;9.13;;;-0.60;99.90;;;;;;5006753;28;20034;-77
2023/11/29 00:28:12;;;;;;;15.02;7.47;;;-0.50;99.90;;;;;;4970266;28;20122;-77
2023/11/29 00:30:58;;;;;;;15.52;8.88;;;-0.50;99.90;;;;;;5008523;28;20048;-76
2023/11/29 00:33:45;;;;;;;14.77;8.40;;;-0.60;99.90;;;;;;4981056;28;20089;-77
2023/11/29 00:36:31;;;;;;;13.90;7.70;;;-0.50;99.90;;;;;;4984769;28;20057;-77
2023/11/29 00:39:20;;;;;;;15.80;8.60;;;-0.50;99.90;;;;;;4996805;28;20482;-76
2023/11/29 00:42:06;;;;;;;13.95;8.63;;;-0.50;99.90;;;;;;4995366;28;20038;-76
2023/11/29 00:44:53;;;;;;;16.08;8.95;;;-0.50;99.90;;;;;;4973367;28;20077;-77
2023/11/29 00:47:40;;;;;;;13.57;6.90;;;-0.40;99.90;;;;;;4994345;28;20047;-76
2023/11/29 00:50:26;;;;;;;12.05;7.00;;;-0.40;99.90;;;;;;4995224;28;20054;-76
2023/11/29 00:53:12;;;;;;;14.38;7.38;;;-0.40;99.90;;;;;;4980184;28;20109;-76
2023/11/29 00:55:58;;;;;;;13.20;7.80;;;-0.40;99.90;;;;;;4983737;28;20375;-76
2023/11/29 00:58:44;;;;;;;13.15;7.90;;;-0.40;99.90;;;;;;4985149;28;20108;-76
2023/11/29 01:01:32;;;;;;;13.80;8.18;;;-0.40;99.90;;;;;;4974151;28;20459;-76
2023/11/29 01:04:18;;;;;;;11.23;7.20;;;-0.30;99.90;;;;;;4997837;28;20121;-76
2023/11/29 01:07:04;;;;;;;12.45;7.18;;;-0.30;99.90;;;;;;4987712;28;20382;-77
2023/11/29 01:09:50;;;;;;;13.20;7.30;;;-0.30;99.90;;;;;;4978461;28;20081;-76
2023/11/29 01:12:36;;;;;;;17.35;7.47;;;-0.30;99.90;;;;;;4987599;28;20034;-77
2023/11/29 01:15:23;;;;;;;13.70;7.53;;;-0.30;99.90;;;;;;5007283;28;20103;-77
2023/11/29 01:18:09;;;;;;;16.15;7.95;;;-0.20;99.90;;;;;;5009425;28;20046;-77
2023/11/29 01:20:55;;;;;;;12.95;7.47;;;-0.20;99.90;;;;;;4993922;28;20038;-77
2023/11/29 01:23:42;;;;;;;14.75;8.82;;;-0.20;99.90;;;;;;4980628;28;20089;-77
2023/11/29 01:26:28;;;;;;;13.45;8.40;;;-0.20;99.90;;;;;;4978230;28;20048;-76
2023/11/29 01:29:14;;;;;;;13.57;8.05;;;-0.10;99.90;;;;;;4996337;28;20034;-77
2023/11/29 01:32:00;;;;;;;13.95;8.63;;;-0.10;99.90;;;;;;4998345;28;20050;-77
2023/11/29 01:34:47;;;;;;;17.50;9.35;;;-0.10;99.90;;;;;;4967216;28;20043;-76
2023/11/29 01:37:34;;;;;;;15.35;8.05;;;0.00;99.90;;;;;;4988523;28;20137;-77
2023/11/29 01:40:20;;;;;;;12.25;7.45;;;0.00;99.90;;;;;;4985736;28;20038;-76
2023/11/29 01:43:06;;;;;;;12.00;7.47;;;0.00;99.90;;;;;;4990578;28;20474;-77
2023/11/29 01:45:52;;;;;;;12.23;7.65;;;0.00;99.90;;;;;;4984833;28;20049;-76
2023/11/29 01:48:39;;;;;;;15.05;8.30;;;0.00;99.90;;;;;;4998299;28;20038;-76
2023/11/29 01:51:25;;;;;;;12.55;7.72;;;0.00;99.90;;;;;;4970755;28;20046;-76
2023/11/29 01:54:11;;;;;;;13.32;8.32;;;0.00;99.90;;;;;;5009086;28;20041;-76
2023/11/29 01:56:58;;;;;;;12.93;7.28;;;0.00;99.90;;;;;;4983965;28;20113;-77
2023/11/29 01:59:44;;;;;;;12.17;7.93;;;0.00;99.90;;;;;;4982692;28;20061;-76
2023/11/29 02:02:30;;;;;;;16.27;8.88;;;0.00;99.90;;;;;;4974186;28;20049;-76
2023/11/29 02:05:17;;;;;;;12.70;7.80;;;0.10;99.90;;;;;;4971581;28;20400;-77
2023/11/29 02:08:05;;;;;;;13.27;8.65;;;0.10;99.90;;;;;;4992686;28;20370;-77
2023/11/29 02:10:51;;;;;;;13.10;8.30;;;0.00;99.90;;;;;;4968794;28;20035;-76
2023/11/29 02:13:37;;;;;;;13.25;8.23;;;0.00;99.90;;;;;;5024105;28;20110;-77
2023/11/29 02:16:23;;;;;;;16.27;8.95;;;0.00;99.90;;;;;;4969186;28;20454;-77
2023/11/29 02:19:09;;;;;;;16.05;9.32;;;-0.10;99.90;;;;;;4981004;28;20086;-76
2023/11/29 02:21:55;;;;;;;16.95;11.57;;;-0.20;99.90;;;;;;4970797;28;20042;-76
2023/11/29 02:24:41;;;;;;;17.35;10.13;;;-0.20;99.90;;;;;;4969874;28;20117;-77
2023/11/29 02:27:29;;;;;;;21.88;11.95;;;-0.30;99.90;;;;;;4966251;28;20038;-77
2023/11/29 02:30:15;;;;;;;20.17;10.60;;;-0.30;99.90;;;;;;4997790;28;20043;-77
2023/11/29 02:33:03;;;;;;;17.67;10.07;;;-0.30;99.90;;;;;;4978412;28;20132;-77
2023/11/29 02:35:49;;;;;;;17.55;9.75;;;-0.30;99.90;;;;;;4979855;28;20046;-76
2023/11/29 02:38:35;;;;;;;16.15;9.60;;;-0.40;99.90;;;;;;4985870;28;20557;-76
2023/11/29 02:41:22;;;;;;;17.98;9.77;;;-0.40;99.90;;;;;;4984642;28;20034;-76
2023/11/29 02:44:08;;;;;;;15.18;9.02;;;-0.40;99.90;;;;;;4983345;28;20382;-76
2023/11/29 02:46:56;;;;;;;17.38;9.07;;;-0.40;99.90;;;;;;4983005;28;20088;-76
2023/11/29 02:49:42;;;;;;;16.30;8.98;;;-0.30;99.90;;;;;;4982715;28;20045;-76
2023/11/29 02:52:28;;;;;;;15.95;9.23;;;-0.40;99.90;;;;;;4996588;28;20038;-76
2023/11/29 02:55:15;;;;;;;16.63;9.57;;;-0.30;99.90;;;;;;4982732;28;20112;-76
2023/11/29 02:58:02;;;;;;;17.02;8.57;;;-0.30;99.90;;;;;;4968999;28;20061;-77
2023/11/29 03:00:48;;;;;;;17.93;9.97;;;-0.30;99.90;;;;;;4985876;28;20042;-77
2023/11/29 03:03:35;;;;;;;16.90;10.30;;;-0.30;99.90;;;;;;4967708;28;20352;-77
2023/11/29 03:06:21;;;;;;;15.45;8.75;;;-0.20;99.90;;;;;;4990581;28;20049;-77
2023/11/29 03:09:08;;;;;;;20.30;9.15;;;-0.20;99.90;;;;;;4964236;28;20379;-76
2023/11/29 03:11:54;;;;;;;16.30;10.43;;;-0.10;99.90;;;;;;4975954;28;20057;-77
2023/11/29 03:14:40;;;;;;;18.92;11.45;;;-0.20;99.90;;;;;;4996517;28;20037;-77
2023/11/29 03:17:26;;;;;;;16.55;9.88;;;-0.10;99.90;;;;;;4982128;28;20490;-77
2023/11/29 03:20:12;;;;;;;21.40;10.52;;;-0.10;99.90;;;;;;4975286;28;20030;-76
2023/11/29 03:22:58;;;;;;;18.33;11.32;;;-0.10;99.90;;;;;;4957422;28;20053;-76
2023/11/29 03:25:44;;;;;;;18.63;10.60;;;0.00;99.90;;;;;;4977112;28;20614;-76
2023/11/29 03:28:31;;;;;;;21.27;12.05;;;0.00;99.90;;;;;;4953467;28;20039;-76
2023/11/29 03:31:17;;;;;;;14.73;9.63;;;-0.10;99.90;;;;;;4973408;28;20125;-76
2023/11/29 03:34:03;;;;;;;17.02;9.73;;;-0.10;99.90;;;;;;4981258;28;20046;-76
2023/11/29 03:36:49;;;;;;;16.73;9.43;;;-0.10;99.90;;;;;;4996305;28;20038;-77
2023/11/29 03:39:35;;;;;;;16.23;10.25;;;-0.10;99.90;;;;;;4983173;28;20049;-77
2023/11/29 03:42:21;;;;;;;18.02;9.68;;;-0.10;99.90;;;;;;4991473;28;20031;-76
2023/11/29 03:45:09;;;;;;;17.95;10.55;;;-0.10;99.90;;;;;;4951993;28;20066;-77
2023/11/29 03:47:55;;;;;;;;;;;-0.10;99.90;;;;;;4981601;28;20042;-76
2023/11/29 03:50:43;;;;;;;15.55;9.07;;;-0.10;99.90;;;;;;4975955;28;20243;-76
2023/11/29 03:53:30;;;;;;;18.27;10.88;;;-0.10;99.90;;;;;;4980966;28;20042;-76
2023/11/29 03:56:16;;;;;;;15.13;9.07;;;-0.20;99.90;;;;;;4993747;28;20395;-76
2023/11/29 03:59:02;;;;;;;17.98;10.40;;;-0.20;99.90;;;;;;4979922;28;20195;-76
2023/11/29 04:01:48;;;;;;;17.98;10.05;;;-0.10;99.90;;;;;;4962728;28;20037;-76
2023/11/29 04:04:34;;;;;;;17.73;9.93;;;-0.20;99.90;;;;;;4977788;28;20039;-76
2023/11/29 04:07:20;;;;;;;15.38;9.55;;;-0.10;99.90;;;;;;5015334;28;20108;-76
2023/11/29 04:10:06;;;;;;;20.08;11.38;;;-0.10;99.90;;;;;;4976123;28;20109;-77
2023/11/29 04:12:53;;;;;;;18.58;11.18;;;-0.10;99.90;;;;;;4957192;28;20031;-76
2023/11/29 04:15:39;;;;;;;19.35;11.13;;;-0.20;99.90;;;;;;4991796;28;20369;-77
2023/11/29 04:18:25;;;;;;;17.48;10.25;;;-0.20;99.90;;;;;;4996946;28;20348;-76
2023/11/29 04:21:25;;;;;;;18.88;11.57;;;-0.20;99.90;;;;;;4988257;28;20035;-77
2023/11/29 04:24:11;;;;;;;20.85;11.90;;;-0.20;99.90;;;;;;4994368;28;20061;-76
2023/11/29 04:26:57;;;;;;;23.70;12.18;;;-0.20;99.90;;;;;;4976270;28;20098;-77
2023/11/29 04:29:43;;;;;;;23.25;11.90;;;-0.20;99.90;;;;;;4975476;28;20120;-76
2023/11/29 04:32:30;;;;;;;24.65;13.63;;;-0.20;99.90;;;;;;4997130;28;20046;-77
2023/11/29 04:35:16;;;;;;;22.73;13.27;;;-0.30;99.90;;;;;;4981912;28;20556;-77
2023/11/29 04:38:03;;;;;;;24.50;12.98;;;-0.30;99.90;;;;;;4985095;28;20133;-77
2023/11/29 04:40:49;;;;;;;24.45;12.70;;;-0.30;99.90;;;;;;4983953;28;20049;-77
2023/11/29 04:43:36;;;;;;;24.67;13.20;;;-0.30;99.90;;;;;;5001335;28;20042;-77
2023/11/29 04:46:22;;;;;;;25.02;12.27;;;-0.30;99.90;;;;;;4965163;28;20117;-77
2023/11/29 04:49:08;;;;;;;24.15;13.32;;;-0.20;99.90;;;;;;4966195;28;20407;-76
2023/11/29 04:51:54;;;;;;;28.08;15.15;;;-0.20;99.90;;;;;;4984950;28;20129;-77
2023/11/29 04:54:41;;;;;;;24.77;13.48;;;-0.20;99.90;;;;;;4972789;28;20042;-77
2023/11/29 04:57:27;;;;;;;26.15;12.25;;;-0.20;99.90;;;;;;4989893;28;20050;-76
2023/11/29 05:00:15;;;;;;;29.83;14.30;;;-0.20;99.90;;;;;;4992721;28;20049;-76
2023/11/29 05:03:01;;;;;;;29.58;13.70;;;-0.30;99.90;;;;;;4983698;28;20491;-76
2023/11/29 05:05:47;;;;;;;26.50;14.30;;;-0.30;99.90;;;;;;4980178;28;20034;-77
2023/11/29 05:08:33;;;;;;;26.38;15.45;;;-0.20;99.90;;;;;;4985654;28;20046;-76
2023/11/29 05:11:20;;;;;;;23.27;12.75;;;-0.20;99.90;;;;;;4977927;28;20797;-76
2023/11/29 05:14:06;;;;;;;19.50;10.77;;;-0.20;99.90;;;;;;4980504;28;20455;-77
2023/11/29 05:16:52;;;;;;;18.60;10.80;;;-0.20;99.90;;;;;;4965154;28;20430;-76
2023/11/29 05:19:38;;;;;;;17.25;9.98;;;-0.10;99.90;;;;;;4968343;28;20045;-76
2023/11/29 05:22:24;;;;;;;19.33;10.82;;;0.00;99.90;;;;;;4955543;28;20042;-77
2023/11/29 05:25:11;;;;;;;18.45;10.38;;;0.00;99.90;;;;;;4972529;28;20116;-76
2023/11/29 05:27:57;;;;;;;18.52;10.25;;;0.10;99.90;;;;;;4980369;28;20049;-77
2023/11/29 05:30:43;;;;;;;17.30;9.10;;;0.10;99.90;;;;;;4990385;28;20038;-76
2023/11/29 05:33:29;;;;;;;24.63;12.02;;;0.20;99.90;;;;;;4971426;28;20073;-77
2023/11/29 05:36:19;;;;;;;18.73;9.52;;;0.20;99.90;;;;;;4996787;28;20624;-77
2023/11/29 05:39:08;;;;;;;19.25;9.88;;;0.30;99.90;;;;;;4970097;28;20578;-77
2023/11/29 05:41:55;;;;;;;18.98;9.75;;;0.30;99.90;;;;;;4997419;28;20120;-77
2023/11/29 05:44:41;;;;;;;15.95;9.23;;;0.30;99.90;;;;;;4973150;28;20081;-76
2023/11/29 05:47:29;;;;;;;18.80;9.52;;;0.30;99.90;;;;;;4997706;28;20038;-76
2023/11/29 05:50:15;;;;;;;19.30;8.80;;;0.40;99.90;;;;;;5008468;28;20058;-76
2023/11/29 05:53:02;;;;;;;20.83;9.93;;;0.40;99.90;;;;;;4978848;28;20451;-77
2023/11/29 05:55:48;;;;;;;17.65;8.75;;;0.40;99.90;;;;;;4976309;28;20046;-77
2023/11/29 05:58:36;;;;;;;16.98;8.60;;;0.40;99.90;;;;;;4964643;28;20047;-77
2023/11/29 06:01:22;;;;;;;;;;;0.40;99.90;;;;;;4956457;28;20050;-77
2023/11/29 06:04:08;;;;;;;15.25;7.75;;;0.40;99.90;;;;;;4974311;28;20294;-76
2023/11/29 06:06:56;;;;;;;14.00;8.23;;;0.40;99.90;;;;;;4972129;28;20402;-77
2023/11/29 06:09:42;;;;;;;15.48;8.10;;;0.40;99.90;;;;;;4969933;28;20126;-76
2023/11/29 06:12:29;;;;;;;16.88;8.43;;;0.50;99.90;;;;;;4991124;28;20034;-76
2023/11/29 06:15:15;;;;;;;19.45;9.98;;;0.50;99.90;;;;;;4968129;28;20790;-76
2023/11/29 06:18:01;;;;;;;17.80;8.98;;;0.50;99.90;;;;;;5010420;28;20374;-76
2023/11/29 06:20:47;;;;;;;17.52;9.27;;;0.40;99.90;;;;;;4988858;28;20034;-76
2023/11/29 06:23:33;;;;;;;15.30;8.07;;;0.50;99.90;;;;;;4964398;28;20043;-76
2023/11/29 06:26:20;;;;;;;13.80;7.68;;;0.50;99.90;;;;;;4988463;28;20117;-76
2023/11/29 06:29:09;;;;;;;14.25;7.57;;;0.50;99.90;;;;;;4988723;28;20043;-75
2023/11/29 06:31:55;;;;;;;13.50;6.93;;;0.50;99.90;;;;;;4971354;28;20042;-76
2023/11/29 06:34:44;;;;;;;14.52;7.55;;;0.50;99.90;;;;;;4980051;28;20053;-76
2023/11/29 06:37:30;;;;;;;12.73;8.50;;;0.40;99.90;;;;;;4998122;28;20035;-76
2023/11/29 06:40:19;;;;;;;18.30;8.70;;;0.50;99.90;;;;;;4984347;28;20074;-76
2023/11/29 06:43:05;;;;;;;14.98;7.45;;;0.50;99.90;;;;;;5001312;28;20030;-76
2023/11/29 06:45:52;;;;;;;14.27;7.68;;;0.50;99.90;;;;;;4964154;28;20411;-76
2023/11/29 06:48:38;;;;;;;17.98;9.27;;;0.50;99.90;;;;;;4971296;28;20034;-77
2023/11/29 06:51:24;;;;;;;15.50;7.47;;;0.50;99.90;;;;;;4975952;28;20050;-76
2023/11/29 06:54:11;;;;;;;14.27;8.82;;;0.50;99.90;;;;;;4980264;28;20034;-77
2023/11/29 06:57:02;;;;;;;16.38;8.15;;;0.50;99.90;;;;;;4978032;28;20465;-77
2023/11/29 06:59:48;;;;;;;16.05;7.95;;;0.50;99.90;;;;;;4976259;28;20046;-77
2023/11/29 07:02:36;;;;;;;15.45;8.15;;;0.50;99.90;;;;;;4972992;28;20427;-77
2023/11/29 07:05:23;;;;;;;;;;;0.50;99.90;;;;;;4978198;28;20030;-76
2023/11/29 07:08:10;;;;;;;14.77;8.52;;;0.50;99.90;;;;;;4969016;28;19914;-76
2023/11/29 07:10:59;;;;;;;15.25;8.35;;;0.50;99.90;;;;;;4969360;28;20043;-76
2023/11/29 07:13:46;;;;;;;12.10;7.72;;;0.50;99.90;;;;;;4963360;28;20039;-76
2023/11/29 07:16:35;;;;;;;13.40;7.90;;;0.50;99.90;;;;;;4995531;28;20120;-76
2023/11/29 07:19:21;;;;;;;12.18;7.57;;;0.60;99.90;;;;;;4971402;28;20050;-76
2023/11/29 07:22:07;;;;;;;13.13;6.85;;;0.50;99.90;;;;;;4968816;28;20458;-77
2023/11/29 07:24:55;;;;;;;12.63;7.60;;;0.50;99.90;;;;;;4972820;28;20097;-76
2023/11/29 07:27:41;;;;;;;12.80;7.50;;;0.50;99.90;;;;;;4976080;28;20128;-76
2023/11/29 07:30:28;;;;;;;15.40;8.30;;;0.50;99.90;;;;;;5008261;28;20039;-77
2023/11/29 07:33:14;;;;;;;14.13;7.38;;;0.50;99.90;;;;;;5008308;28;20038;-76
2023/11/29 07:36:00;;;;;;;12.27;7.75;;;0.60;99.90;;;;;;4982442;28;20095;-76
2023/11/29 07:38:46;;;;;;;12.57;7.15;;;0.60;99.90;;;;;;4962857;28;20541;-76
2023/11/29 07:41:32;;;;;;;13.95;7.50;;;0.60;99.90;;;;;;4979200;28;20035;-76
2023/11/29 07:44:18;;;;;;;14.98;8.70;;;0.60;99.90;;;;;;4967906;28;20126;-76
2023/11/29 07:47:05;;;;;;;13.27;7.57;;;0.60;99.90;;;;;;4981640;28;20597;-77
2023/11/29 07:49:52;;;;;;;15.47;7.70;;;0.70;99.90;;;;;;4983193;28;20473;-77
2023/11/29 07:52:40;;;;;;;11.25;7.00;;;0.70;99.90;;;;;;4985115;28;20046;-77
2023/11/29 07:55:26;;;;;;;13.30;7.53;;;0.70;99.90;;;;;;4970232;28;20049;-76
2023/11/29 07:58:13;;;;;;;14.10;7.38;;;0.80;99.90;;;;;;5012484;28;20796;-76
2023/11/29 08:00:59;;;;;;;11.52;7.13;;;0.80;99.90;;;;;;5014354;28;20042;-76
2023/11/29 08:03:45;;;;;;;12.65;7.38;;;0.80;99.90;;;;;;5013604;28;20888;-76
2023/11/29 08:06:32;;;;;;;12.13;7.78;;;0.90;99.90;;;;;;4972622;28;20042;-76
2023/11/29 08:09:20;;;;;;;15.25;7.95;;;0.90;99.90;;;;;;4971528;28;20217;-76
2023/11/29 08:12:06;;;;;;;14.52;8.25;;;0.90;99.90;;;;;;4991000;28;20046;-76
2023/11/29 08:14:52;;;;;;;13.18;7.97;;;0.90;99.90;;;;;;4962774;28;20046;-76
2023/11/29 08:17:39;;;;;;;12.45;7.72;;;0.90;99.90;;;;;;4949888;28;20070;-76
2023/11/29 08:20:27;;;;;;;11.85;7.15;;;1.00;99.90;;;;;;4974707;28;20047;-76
2023/11/29 08:23:13;;;;;;;12.90;7.00;;;1.00;99.90;;;;;;4981340;28;20031;-76
2023/11/29 08:25:59;;;;;;;12.82;7.63;;;1.00;99.90;;;;;;4982250;28;20073;-77
2023/11/29 08:28:45;;;;;;;13.85;8.02;;;1.00;99.90;;;;;;4968731;28;20038;-76
2023/11/29 08:31:33;;;;;;;12.27;7.68;;;1.00;99.90;;;;;;4972166;28;20035;-76
2023/11/29 08:34:19;;;;;;;12.65;7.88;;;1.00;99.90;;;;;;4975959;28;20047;-76
2023/11/29 08:37:05;;;;;;;14.00;7.55;;;1.00;99.90;;;;;;4991981;28;20106;-77
2023/11/29 08:39:53;;;;;;;14.57;7.25;;;1.00;99.90;;;;;;4994339;28;20042;-76
2023/11/29 08:42:39;;;;;;;13.85;7.93;;;1.10;99.90;;;;;;4992149;28;20031;-76
2023/11/29 08:45:25;;;;;;;12.05;7.65;;;1.00;99.90;;;;;;4976727;28;20652;-76
2023/11/29 08:48:12;;;;;;;12.98;8.27;;;1.10;99.90;;;;;;4983514;28;20039;-76
2023/11/29 08:50:58;;;;;;;13.27;7.53;;;1.10;99.90;;;;;;4967477;28;20074;-76
2023/11/29 08:53:44;;;;;;;11.25;7.93;;;1.10;99.90;;;;;;4962621;28;20043;-76
2023/11/29 08:56:30;;;;;;;12.95;7.60;;;1.20;99.90;;;;;;4987538;28;20042;-78
2023/11/29 08:59:17;;;;;;;13.02;6.93;;;1.20;99.90;;;;;;4992791;28;20368;-76
2023/11/29 09:02:04;;;;;;;10.95;7.30;;;1.20;99.90;;;;;;4992200;28;20149;-77
2023/11/29 09:04:50;;;;;;;13.55;7.97;;;1.20;99.90;;;;;;4980035;28;20101;-76
2023/11/29 09:07:36;;;;;;;12.43;7.93;;;1.20;99.90;;;;;;4979468;28;20125;-76
2023/11/29 09:10:22;;;;;;;12.65;7.18;;;1.30;99.90;;;;;;4970498;28;20092;-77
2023/11/29 09:13:09;;;;;;;13.93;8.65;;;1.30;99.90;;;;;;4990998;28;20031;-76
2023/11/29 09:15:58;;;;;;;11.65;6.72;;;1.20;99.90;;;;;;4998944;28;20077;-76
2023/11/29 09:18:44;;;;;;;11.85;6.97;;;1.30;99.90;;;;;;4980100;28;20050;-76
2023/11/29 09:21:30;;;;;;;13.85;6.75;;;1.30;99.90;;;;;;4985040;28;20050;-76
2023/11/29 09:24:17;;;;;;;13.18;7.45;;;1.30;99.90;;;;;;4990082;28;20106;-77
2023/11/29 09:27:04;;;;;;;12.80;6.70;;;1.30;99.90;;;;;;4984332;28;20046;-76
2023/11/29 09:29:52;;;;;;;10.25;6.40;;;1.40;99.90;;;;;;4991949;28;20053;-76
2023/11/29 09:32:38;;;;;;;10.20;5.65;;;1.40;99.90;;;;;;4979255;28;20050;-77
2023/11/29 09:35:24;;;;;;;14.10;8.68;;;1.40;99.90;;;;;;5004419;28;20065;-76
2023/11/29 09:38:11;;;;;;;12.18;7.90;;;1.50;99.90;;;;;;4972326;28;20042;-77
2023/11/29 09:40:58;;;;;;;16.52;8.55;;;1.50;99.90;;;;;;4992290;28;20049;-76
2023/11/29 09:43:44;;;;;;;21.40;9.05;;;1.60;99.90;;;;;;4971087;28;20034;-77
2023/11/29 09:46:31;;;;;;;16.67;9.05;;;1.60;99.90;;;;;;4998586;28;20038;-76
2023/11/29 09:49:17;;;;;;;14.97;7.23;;;1.60;99.90;;;;;;4978962;28;20125;-76
2023/11/29 09:52:04;;;;;;;16.45;7.72;;;1.70;99.90;;;;;;4984859;28;20288;-76
2023/11/29 09:54:51;;;;;;;13.05;7.88;;;1.70;99.90;;;;;;4974707;28;20355;-76
2023/11/29 09:57:37;;;;;;;12.82;6.78;;;1.70;99.90;;;;;;4998876;28;20034;-77
2023/11/29 10:00:25;;;;;;;11.40;7.05;;;1.70;99.90;;;;;;4994283;28;20034;-77
2023/11/29 10:03:13;;;;;;;13.07;8.07;;;1.80;99.90;;;;;;4992028;28;20045;-77
2023/11/29 10:05:59;;;;;;;;;;;1.70;99.90;;;;;;4995558;28;20034;-77
2023/11/29 10:08:45;;;;;;;13.90;8.30;;;1.70;99.90;;;;;;4983933;28;19941;-76
2023/11/29 10:11:34;;;;;;;11.65;7.55;;;1.60;99.90;;;;;;4977749;28;20109;-77
2023/11/29 10:14:20;;;;;;;12.45;8.25;;;1.60;99.90;;;;;;4967719;28;20046;-76
2023/11/29 10:17:12;;;;;;;17.92;9.77;;;1.60;99.90;;;;;;4984037;28;20038;-76
2023/11/29 10:19:58;;;;;;;13.95;7.40;;;1.60;99.90;;;;;;4997659;28;20474;-76
2023/11/29 10:22:49;;;;;;;12.48;7.82;;;1.50;99.90;;;;;;4986072;28;20031;-77
2023/11/29 10:25:35;;;;;;;13.25;9.10;;;1.50;99.90;;;;;;4965283;28;20386;-76
2023/11/29 10:28:21;;;;;;;16.90;9.25;;;1.60;99.90;;;;;;4976475;28;20504;-77
2023/11/29 10:31:07;;;;;;;14.07;8.60;;;1.50;99.90;;;;;;4971656;28;20062;-76
2023/11/29 10:33:53;;;;;;;11.70;8.18;;;1.60;99.90;;;;;;5008870;28;20049;-77
2023/11/29 10:36:40;;;;;;;14.73;8.55;;;1.60;99.90;;;;;;4992518;28;20034;-76
2023/11/29 10:39:28;;;;;;;12.52;7.53;;;1.60;99.90;;;;;;4996396;28;20050;-77
2023/11/29 10:42:14;;;;;;;14.20;8.77;;;1.70;99.90;;;;;;4964050;28;20376;-77
2023/11/29 10:45:01;;;;;;;14.30;8.75;;;1.60;99.90;;;;;;4983146;28;20038;-76
2023/11/29 10:48:02;;;;;;;12.55;7.90;;;1.70;99.90;;;;;;4996109;28;20411;-76
2023/11/29 10:50:48;;;;;;;13.15;8.18;;;1.60;99.90;;;;;;4997170;28;20121;-76
2023/11/29 10:53:35;;;;;;;12.90;8.40;;;1.60;99.90;;;;;;4982635;28;20412;-76
2023/11/29 10:56:21;;;;;;;12.05;7.90;;;1.70;99.90;;;;;;4983381;28;20402;-76
2023/11/29 10:59:24;;;;;;;13.63;9.13;;;1.70;99.90;;;;;;4996123;28;20061;-77
2023/11/29 11:02:11;;;;;;;16.20;9.63;;;1.60;99.90;;;;;;4990668;28;20038;-77
2023/11/29 11:05:07;;;;;;;17.35;10.40;;;1.50;99.90;;;;;;4969634;28;20623;-77
2023/11/29 11:07:53;;;;;;;17.13;9.90;;;1.40;99.90;;;;;;4983218;28;20801;-76
2023/11/29 11:10:42;;;;;;;20.55;10.82;;;1.40;99.90;;;;;;4971421;28;20038;-76
2023/11/29 11:13:34;;;;;;;15.80;9.57;;;1.40;99.90;;;;;;4982481;28;20031;-77
2023/11/29 11:16:22;;;;;;;15.48;10.10;;;1.30;99.90;;;;;;4971018;28;20486;-76
2023/11/29 11:19:08;;;;;;;16.77;10.50;;;1.40;99.90;;;;;;4981895;28;20101;-76
2023/11/29 11:21:54;;;;;;;17.10;10.35;;;1.40;99.90;;;;;;4968716;28;20135;-75
2023/11/29 11:25:03;;;;;;;14.73;9.50;;;1.50;99.90;;;;;;4963071;28;20073;-74
2023/11/29 11:27:49;;;;;;;13.32;8.50;;;1.50;99.90;;;;;;4991310;28;20113;-75
2023/11/29 11:30:42;;;;;;;17.77;8.95;;;1.50;99.90;;;;;;4994156;28;20053;-75
2023/11/29 11:33:53;;;;;;;17.50;9.20;;;1.50;99.90;;;;;;4979456;28;20193;-74
2023/11/29 11:36:39;;;;;;;14.02;9.18;;;1.60;99.90;;;;;;4989876;28;20072;-75
2023/11/29 11:39:27;;;;;;;15.68;9.25;;;1.60;99.90;;;;;;4983141;28;20478;-75
2023/11/29 11:42:13;;;;;;;15.77;9.82;;;1.70;99.90;;;;;;4981862;28;20068;-75
2023/11/29 11:44:59;;;;;;;14.80;8.68;;;1.70;99.90;;;;;;4996657;28;20042;-75
2023/11/29 11:47:48;;;;;;;14.65;9.55;;;1.70;99.90;;;;;;5008147;28;20614;-75
2023/11/29 11:50:34;;;;;;;15.43;9.82;;;1.80;99.90;;;;;;4981442;28;20425;-75
2023/11/29 11:53:20;;;;;;;17.35;9.80;;;1.80;99.90;;;;;;4978511;28;20045;-74
2023/11/29 11:56:19;;;;;;;15.32;9.07;;;1.90;99.90;;;;;;4977300;28;20047;-75
2023/11/29 11:59:07;;;;;;;17.08;10.10;;;1.90;99.90;;;;;;4980910;28;20046;-75
2023/11/29 12:01:54;;;;;;;19.73;11.77;;;2.00;99.90;;;;;;4965570;28;20475;-75
2023/11/29 12:04:40;;;;;;;16.55;10.18;;;2.00;99.90;;;;;;4975813;28;20038;-75
2023/11/29 12:07:26;;;;;;;15.93;9.77;;;1.90;99.90;;;;;;4972921;28;20096;-75
2023/11/29 12:10:15;;;;;;;14.48;9.18;;;2.00;99.90;;;;;;4976582;28;20357;-75
2023/11/29 12:13:01;;;;;;;14.23;8.55;;;1.90;99.90;;;;;;4986832;28;20486;-75
2023/11/29 12:15:47;;;;;;;13.15;8.65;;;1.90;99.90;;;;;;4968986;28;20046;-74
2023/11/29 12:18:33;;;;;;;14.70;10.18;;;1.90;99.90;;;;;;4995331;28;20379;-74
2023/11/29 12:21:21;;;;;;;16.40;8.75;;;1.80;99.90;;;;;;4992557;28;20091;-74
2023/11/29 12:24:07;;;;;;;15.98;9.73;;;1.80;99.90;;;;;;4966341;28;20081;-75
2023/11/29 12:26:54;;;;;;;14.52;9.82;;;1.80;99.90;;;;;;4981742;28;20128;-75
2023/11/29 12:29:47;;;;;;;16.05;10.00;;;1.80;99.90;;;;;;4986470;28;20129;-75
2023/11/29 12:32:33;;;;;;;13.88;8.50;;;1.80;99.90;;;;;;4980196;28;20132;-75
2023/11/29 12:35:21;;;;;;;15.50;10.57;;;1.80;99.90;;;;;;4976866;28;20039;-75
2023/11/29 12:38:07;;;;;;;12.65;8.13;;;1.80;99.90;;;;;;4965015;28;20345;-75
2023/11/29 12:40:53;;;;;;;13.73;9.07;;;1.80;99.90;;;;;;4952863;28;20039;-75
2023/11/29 12:43:39;;;;;;;14.90;8.90;;;1.80;99.90;;;;;;4952457;28;20550;-74
2023/11/29 12:46:25;;;;;;;13.80;8.25;;;1.80;99.90;;;;;;4978138;28;20336;-74
2023/11/29 12:49:11;;;;;;;13.60;9.57;;;1.80;99.90;;;;;;4968304;28;20065;-74
2023/11/29 12:51:58;;;;;;;15.27;8.68;;;1.80;99.90;;;;;;4991698;28;20038;-74
2023/11/29 12:54:45;;;;;;;15.38;9.30;;;1.80;99.90;;;;;;4983865;28;20046;-75
2023/11/29 12:57:31;;;;;;;15.32;8.98;;;1.80;99.90;;;;;;4973079;28;20056;-75
2023/11/29 13:00:18;;;;;;;16.30;9.88;;;1.70;99.90;;;;;;4973059;28;20044;-75
2023/11/29 13:03:04;;;;;;;13.93;8.93;;;1.70;99.90;;;;;;4977015;28;20407;-75
2023/11/29 13:05:50;;;;;;;15.15;10.10;;;1.70;99.90;;;;;;4985544;28;20125;-75
2023/11/29 13:08:36;;;;;;;14.07;9.07;;;1.70;99.90;;;;;;4979383;28;20051;-74
2023/11/29 13:11:22;;;;;;;14.73;9.23;;;1.70;99.90;;;;;;4990381;28;20038;-75
2023/11/29 13:14:08;;;;;;;18.40;10.55;;;1.70;99.90;;;;;;4994216;28;20152;-74
2023/11/29 13:16:54;;;;;;;16.77;8.48;;;1.70;99.90;;;;;;4984133;28;20034;-77
2023/11/29 13:19:43;;;;;;;20.80;9.25;;;1.80;99.90;;;;;;4982297;28;20042;-76
2023/11/29 13:22:30;;;;;;;13.02;9.02;;;1.70;99.90;;;;;;4997283;28;20030;-76
2023/11/29 13:25:20;;;;;;;12.70;8.32;;;1.70;99.90;;;;;;4984342;28;20046;-76
2023/11/29 13:28:06;;;;;;;13.38;8.63;;;1.70;99.90;;;;;;4998779;28;20564;-77
2023/11/29 13:30:52;;;;;;;13.10;8.52;;;1.70;99.90;;;;;;4998492;28;20042;-77
2023/11/29 13:33:38;;;;;;;10.82;7.60;;;1.80;99.90;;;;;;4998373;28;20034;-76
2023/11/29 13:36:24;;;;;;;15.15;8.10;;;1.80;99.90;;;;;;4975963;28;20489;-77
2023/11/29 13:39:11;;;;;;;11.13;7.32;;;1.70;99.90;;;;;;4965991;28;20128;-76
2023/11/29 13:41:57;;;;;;;13.30;9.65;;;1.80;99.90;;;;;;4985799;28;20069;-77
2023/11/29 13:44:44;;;;;;;14.63;7.90;;;1.80;99.90;;;;;;4979738;28;20045;-77
2023/11/29 13:47:30;;;;;;;13.23;8.18;;;1.70;99.90;;;;;;4977981;28;20459;-77
2023/11/29 13:50:16;;;;;;;13.70;8.88;;;1.70;99.90;;;;;;4963641;28;20105;-77
2023/11/29 13:53:02;;;;;;;10.93;7.15;;;1.60;99.90;;;;;;4983581;28;20039;-77
2023/11/29 13:55:49;;;;;;;10.57;6.72;;;1.60;99.90;;;;;;4964746;28;20799;-76
2023/11/29 13:58:35;;;;;;;8.93;6.10;;;1.50;99.90;;;;;;4975759;28;20046;-76
2023/11/29 14:01:23;;;;;;;11.02;7.70;;;1.60;99.90;;;;;;4998148;28;20066;-76
2023/11/29 14:04:11;;;;;;;14.77;8.88;;;1.50;99.90;;;;;;4971089;28;20426;-77
2023/11/29 14:06:58;;;;;;;13.52;9.68;;;1.50;99.90;;;;;;4997162;28;20030;-76
2023/11/29 14:09:44;;;;;;;13.55;8.95;;;1.40;99.90;;;;;;4998532;28;20049;-76
2023/11/29 14:12:30;;;;;;;16.58;10.10;;;1.40;99.90;;;;;;4988356;28;20043;-77
2023/11/29 14:15:16;;;;;;;15.15;10.13;;;1.40;99.90;;;;;;4977290;28;20495;-76
2023/11/29 14:18:02;;;;;;;17.30;10.82;;;1.30;99.90;;;;;;4991881;28;20053;-77
2023/11/29 14:20:49;;;;;;;17.52;11.00;;;1.30;99.90;;;;;;4988334;28;20030;-76
2023/11/29 14:23:35;;;;;;;17.88;10.70;;;1.20;99.90;;;;;;4964384;28;20042;-76